Ft Sturla — IBXV — position and weather

sailwx.info

Track history (hours):
 
Tides and Currents Weather Stations Pressure Air Temp Water Temp Dewpoint Dewpoint Depression Visibility Wind Speed Wind Dir Waves Ship Positions

Ft Sturla

Last reported at 2016-Jul-20 10:29 UTC. Time now 2016-Jul-24 06:48 UTC.
Position N 41°31' E 011°19'.

Length 120 m; draft 7.3 m.

Type: Ship (hazmat cat B). MMSI: 247282200.

Date/timePositionNaut miles runAvg speedWind from/ knotsBaromVisibWave heightAir tempDewpointWater temp
2016-Jul-20 10:29N 41°31' E 011°19'1010.7
2016-Jul-20 09:32N 41°22' E 011°13'2110.7
2016-Jul-20 07:33N 41°03' E 011°01'1611.2
2016-Jul-20 06:09N 40°49' E 010°51'12211.0
2016-Jul-19 19:08N 39°01' E 009°38'610.8
2016-Jul-19 18:33N 38°58' E 009°31'1110.6
2016-Jul-19 17:33N 38°53' E 009°19'1111.0
2016-Jul-19 16:33N 38°48' E 009°06'1111.0
2016-Jul-19 15:33N 38°44' E 008°53'2211.0
2016-Jul-19 13:32N 38°42' E 008°24'1111.3
2016-Jul-19 12:32N 38°40' E 008°10'9810.7
2016-Jul-19 03:20N 38°15' E 006°08'56 9.7
2016-Jul-18 21:33N 37°60' E 005°00'5310.2
2016-Jul-18 16:20N 37°45' E 003°55'13710.6
2016-Jul-18 03:24N 37°07' E 001°09'2010.6
2016-Jul-18 01:33N 37°02' E 000°45'1010.4
2016-Jul-18 00:33N 36°59' E 000°32'1110.8
2016-Jul-17 23:33N 36°56' E 000°19'1110.5
2016-Jul-17 22:27N 36°53' E 000°06'1010.9
2016-Jul-17 21:33N 36°50' W 000°06'1110.9
2016-Jul-17 20:33N 36°47' W 000°19'1211.0
2016-Jul-17 19:28N 36°44' W 000°33'2110.5
2016-Jul-17 17:26N 36°38' W 000°59'211 9.5
2016-Jul-16 19:17N 36°05' W 005°18'5 6.4
2016-Jul-16 18:34N 36°07' W 005°23'2 0.1
2016-Jul-15 22:33N 36°08' W 005°25'5 4.9
2016-Jul-15 21:33N 36°04' W 005°21'7 7.3
2016-Jul-15 20:33N 36°05' W 005°12'22411.2
2016-Jul-15 00:30N 37°23' W 000°50'1111.8
2016-Jul-14 23:33N 37°30' W 000°39'1111.3
2016-Jul-14 22:33N 37°39' W 000°30'1211.8
2016-Jul-14 21:33N 37°44' W 000°17'107 9.6
2016-Jul-14 10:24N 38°51' E 001°30'2 0.9
2016-Jul-14 08:19N 38°52' E 001°28'1 0.1
2016-Jul-13 13:13N 38°53' E 001°28'3 0.9
2016-Jul-13 09:27N 38°54' E 001°33'1011.2
2016-Jul-13 08:33N 38°55' E 001°45'1211.5
2016-Jul-13 07:31N 38°56' E 002°01'1111.6
2016-Jul-13 06:33N 38°57' E 002°15'1212.0
2016-Jul-13 05:33N 38°58' E 002°30'1212.1
2016-Jul-13 04:33N 38°59' E 002°46'1111.4
2016-Jul-13 03:33N 39°02' E 002°60'1111.5
2016-Jul-13 02:33N 39°09' E 003°12'1111.4
2016-Jul-13 01:33N 39°15' E 003°24'1311.5
2016-Jul-13 00:26N 39°23' E 003°38'32 1.6
2016-Jul-12 04:32N 39°49' E 004°02'1311.3
2016-Jul-12 03:25N 39°53' E 003°47'1011.1
2016-Jul-12 02:33N 39°59' E 003°38'2411.5
2016-Jul-12 00:29N 40°17' E 003°17'1011.1
2016-Jul-11 23:33N 40°25' E 003°09'1110.8
2016-Jul-11 22:33N 40°33' E 002°59'1110.8
2016-Jul-11 21:33N 40°42' E 002°50'1110.8
2016-Jul-11 20:33N 40°50' E 002°41'1110.7
2016-Jul-11 19:33N 40°58' E 002°32'1010.3
2016-Jul-11 18:33N 41°06' E 002°23'1110.3
2016-Jul-11 17:32N 41°13' E 002°13'8 0.6
2016-Jul-11 04:17N 41°20' E 002°09'0 0.0
2016-Jul-11 02:05N 41°20' E 002°09'0 0.0
2016-Jul-11 01:29N 41°20' E 002°09'0 0.0
2016-Jul-10 23:17N 41°20' E 002°09'0 0.0
2016-Jul-10 19:32N 41°20' E 002°09'2 2.4
2016-Jul-10 18:32N 41°18' E 002°11'2 0.9
2016-Jul-10 16:23N 41°20' E 002°12'0 0.0
2016-Jul-10 14:17N 41°20' E 002°12'0 0.0
2016-Jul-10 13:23N 41°20' E 002°12'0 0.0
2016-Jul-10 11:11N 41°20' E 002°12'  
Track history (hours):
 
Tides and Currents Weather Stations Pressure Air Temp Water Temp Dewpoint Dewpoint Depression Visibility Wind Speed Wind Dir Waves Ship Positions

Ft Sturla

Last reported at 2016-Jul-20 10:29 UTC. Time now 2016-Jul-24 06:48 UTC.
Position N 41°31' E 011°19'.

Length 120 m; draft 7.3 m.

Type: Ship (hazmat cat B). MMSI: 247282200.

Date/timePositionNaut miles runAvg speedWind from/ knotsBaromVisibWave heightAir tempDewpointWater temp
2016-Jul-20 10:29N 41°31' E 011°19'1010.7
2016-Jul-20 09:32N 41°22' E 011°13'2110.7
2016-Jul-20 07:33N 41°03' E 011°01'1611.2
2016-Jul-20 06:09N 40°49' E 010°51'12211.0
2016-Jul-19 19:08N 39°01' E 009°38'610.8
2016-Jul-19 18:33N 38°58' E 009°31'1110.6
2016-Jul-19 17:33N 38°53' E 009°19'1111.0
2016-Jul-19 16:33N 38°48' E 009°06'1111.0
2016-Jul-19 15:33N 38°44' E 008°53'2211.0
2016-Jul-19 13:32N 38°42' E 008°24'1111.3
2016-Jul-19 12:32N 38°40' E 008°10'9810.7
2016-Jul-19 03:20N 38°15' E 006°08'56 9.7
2016-Jul-18 21:33N 37°60' E 005°00'5310.2
2016-Jul-18 16:20N 37°45' E 003°55'13710.6
2016-Jul-18 03:24N 37°07' E 001°09'2010.6
2016-Jul-18 01:33N 37°02' E 000°45'1010.4
2016-Jul-18 00:33N 36°59' E 000°32'1110.8
2016-Jul-17 23:33N 36°56' E 000°19'1110.5
2016-Jul-17 22:27N 36°53' E 000°06'1010.9
2016-Jul-17 21:33N 36°50' W 000°06'1110.9
2016-Jul-17 20:33N 36°47' W 000°19'1211.0
2016-Jul-17 19:28N 36°44' W 000°33'2110.5
2016-Jul-17 17:26N 36°38' W 000°59'211 9.5
2016-Jul-16 19:17N 36°05' W 005°18'5 6.4
2016-Jul-16 18:34N 36°07' W 005°23'2 0.1
2016-Jul-15 22:33N 36°08' W 005°25'5 4.9
2016-Jul-15 21:33N 36°04' W 005°21'7 7.3
2016-Jul-15 20:33N 36°05' W 005°12'22411.2
2016-Jul-15 00:30N 37°23' W 000°50'1111.8
2016-Jul-14 23:33N 37°30' W 000°39'1111.3
2016-Jul-14 22:33N 37°39' W 000°30'1211.8
2016-Jul-14 21:33N 37°44' W 000°17'107 9.6
2016-Jul-14 10:24N 38°51' E 001°30'2 0.9
2016-Jul-14 08:19N 38°52' E 001°28'1 0.1
2016-Jul-13 13:13N 38°53' E 001°28'3 0.9
2016-Jul-13 09:27N 38°54' E 001°33'1011.2
2016-Jul-13 08:33N 38°55' E 001°45'1211.5
2016-Jul-13 07:31N 38°56' E 002°01'1111.6
2016-Jul-13 06:33N 38°57' E 002°15'1212.0
2016-Jul-13 05:33N 38°58' E 002°30'1212.1
2016-Jul-13 04:33N 38°59' E 002°46'1111.4
2016-Jul-13 03:33N 39°02' E 002°60'1111.5
2016-Jul-13 02:33N 39°09' E 003°12'1111.4
2016-Jul-13 01:33N 39°15' E 003°24'1311.5
2016-Jul-13 00:26N 39°23' E 003°38'32 1.6
2016-Jul-12 04:32N 39°49' E 004°02'1311.3
2016-Jul-12 03:25N 39°53' E 003°47'1011.1
2016-Jul-12 02:33N 39°59' E 003°38'2411.5
2016-Jul-12 00:29N 40°17' E 003°17'1011.1
2016-Jul-11 23:33N 40°25' E 003°09'1110.8
2016-Jul-11 22:33N 40°33' E 002°59'1110.8
2016-Jul-11 21:33N 40°42' E 002°50'1110.8
2016-Jul-11 20:33N 40°50' E 002°41'1110.7
2016-Jul-11 19:33N 40°58' E 002°32'1010.3
2016-Jul-11 18:33N 41°06' E 002°23'1110.3
2016-Jul-11 17:32N 41°13' E 002°13'8 0.6
2016-Jul-11 04:17N 41°20' E 002°09'0 0.0
2016-Jul-11 02:05N 41°20' E 002°09'0 0.0
2016-Jul-11 01:29N 41°20' E 002°09'0 0.0
2016-Jul-10 23:17N 41°20' E 002°09'0 0.0
2016-Jul-10 19:32N 41°20' E 002°09'2 2.4
2016-Jul-10 18:32N 41°18' E 002°11'2 0.9
2016-Jul-10 16:23N 41°20' E 002°12'0 0.0
2016-Jul-10 14:17N 41°20' E 002°12'0 0.0
2016-Jul-10 13:23N 41°20' E 002°12'0 0.0
2016-Jul-10 11:11N 41°20' E 002°12'  

Dump ship's entire track history